Time;durP1;ratioP1;P1;durP2;ratioP2;P2;SDS_P1;SDS_P2;PMS_P1;PMS_P2;Temp;Humidity;BMP_temperature;BMP_pressure;BME280_temperature;BME280_humidity;BME280_pressure;Samples;Min_cycle;Max_cycle;Signal;HPM_P1;HPM_P2
2023/07/10 00:02:06;;;;;;;;;;;;;;;;;;4952661;28;19931;-79
2023/07/10 00:04:34;;;;;;;;;;;;;;;;;;4946990;29;19934;-80
2023/07/10 00:07:01;;;;;;;;;;;;;;;;;;4945185;29;19937;-80
2023/07/10 00:09:29;;;;;;;;;;;;;;;;;;4948844;28;20468;-80
2023/07/10 00:11:57;;;;;;;;;;;;;;;;;;4946072;29;19935;-81
2023/07/10 00:14:24;;;;;;;;;;;;;;;;;;4936458;29;19935;-80
2023/07/10 00:16:52;;;;;;;;;;;;;;;;;;4944217;29;19930;-80
2023/07/10 00:19:19;;;;;;;;;;;;;;;;;;4944388;29;19938;-80
2023/07/10 00:21:47;;;;;;;;;;;;;;;;;;4945198;29;19927;-79
2023/07/10 00:24:19;;;;;;;;;;;;;;;;;;4961234;28;19938;-80
2023/07/10 00:26:47;;;;;;;;;;;;;;;;;;4945142;29;20367;-80
2023/07/10 00:29:19;;;;;;;;;;;;;;;;;;4945015;29;19934;-81
2023/07/10 00:31:47;;;;;;;;;;;;;;;;;;4960845;28;20318;-79
2023/07/10 00:34:25;;;;;;;;;;;;;;;;;;4946689;29;19941;-80
2023/07/10 00:36:52;;;;;;;;;;;;;;;;;;4947427;29;19930;-79
2023/07/10 00:39:20;;;;;;;;;;;;;;;;;;4948492;29;20315;-80
2023/07/10 00:41:47;;;;;;;;;;;;;;;;;;4946874;29;19937;-80
2023/07/10 00:44:20;;;;;;;;;;;;;;;;;;4948761;29;20647;-79
2023/07/10 00:46:47;;;;;;;;;;;;;;;;;;4941300;29;19934;-79
2023/07/10 00:49:15;;;;;;;;;;;;;;;;;;4941455;28;19930;-80
2023/07/10 00:51:44;;;;;;;;;;;;;;;;;;4946006;29;20409;-80
2023/07/10 00:54:11;;;;;;;;;;;;;;;;;;4965382;28;19937;-79
2023/07/10 00:56:45;;;;;;;;;;;;;;;;;;4965357;28;19934;-80
2023/07/10 00:59:12;;;;;;;;;;;;;;;;;;4963850;28;19952;-80
2023/07/10 01:01:45;;;;;;;;;;;;;;;;;;4946351;29;19934;-79
2023/07/10 01:04:12;;;;;;;;;;;;;;;;;;4948062;29;19930;-79
2023/07/10 01:06:45;;;;;;;;;;;;;;;;;;4941396;29;19930;-80
2023/07/10 01:09:12;;;;;;;;;;;;;;;;;;4963192;28;20617;-80
2023/07/10 01:11:46;;;;;;;;;;;;;;;;;;4965106;28;19945;-79
2023/07/10 01:14:15;;;;;;;;;;;;;;;;;;4964837;28;19930;-81
2023/07/10 01:16:42;;;;;;;;;;;;;;;;;;4947138;29;19930;-79
2023/07/10 01:19:10;;;;;;;;;;;;;;;;;;4950805;29;20775;-80
2023/07/10 01:21:42;;;;;;;;;;;;;;;;;;4948878;29;20459;-80
2023/07/10 01:24:10;;;;;;;;;;;;;;;;;;4945310;29;19935;-81
2023/07/10 01:26:42;;;;;;;;;;;;;;;;;;4942301;29;19931;-80
2023/07/10 01:29:16;;;;;;;;;;;;;;;;;;4948309;29;19930;-80
2023/07/10 01:31:49;;;;;;;;;;;;;;;;;;4949565;29;20406;-79
2023/07/10 01:34:22;;;;;;;;;;;;;;;;;;4944952;29;19930;-80
2023/07/10 01:36:54;;;;;;;;;;;;;;;;;;4962468;28;19945;-79
2023/07/10 01:39:27;;;;;;;;;;;;;;;;;;4948863;29;19931;-79
2023/07/10 01:41:54;;;;;;;;;;;;;;;;;;4951230;29;20295;-80
2023/07/10 01:44:22;;;;;;;;;;;;;;;;;;4949957;29;19934;-80
2023/07/10 01:46:54;;;;;;;;;;;;;;;;;;4942295;29;19931;-80
2023/07/10 01:49:27;;;;;;;;;;;;;;;;;;4948379;29;19930;-79
2023/07/10 01:51:54;;;;;;;;;;;;;;;;;;4961250;28;19926;-79
2023/07/10 01:54:27;;;;;;;;;;;;;;;;;;4948917;29;19930;-80
2023/07/10 01:56:59;;;;;;;;;;;;;;;;;;4961887;28;19935;-79
2023/07/10 01:59:32;;;;;;;;;;;;;;;;;;4947384;28;19961;-81
2023/07/10 02:02:05;;;;;;;;;;;;;;;;;;4962777;28;20395;-79
2023/07/10 02:04:37;;;;;;;;;;;;;;;;;;4941601;29;19934;-79
2023/07/10 02:07:10;;;;;;;;;;;;;;;;;;4944891;29;19938;-80
2023/07/10 02:09:42;;;;;;;;;;;;;;;;;;4950621;29;19930;-80
2023/07/10 02:12:11;;;;;;;;;;;;;;;;;;4962871;28;19930;-80
2023/07/10 02:14:39;;;;;;;;;;;;;;;;;;4957743;28;19930;-80
2023/07/10 02:17:07;;;;;;;;;;;;;;;;;;4946337;28;19930;-79
2023/07/10 02:19:39;;;;;;;;;;;;;;;;;;4946526;29;19930;-80
2023/07/10 02:22:07;;;;;;;;;;;;;;;;;;4948843;29;19956;-80
2023/07/10 02:24:34;;;;;;;;;;;;;;;;;;4940684;29;19930;-79
2023/07/10 02:27:02;;;;;;;;;;;;;;;;;;4961920;28;19953;-80
2023/07/10 02:29:30;;;;;;;;;;;;;;;;;;4946924;29;20574;-80
2023/07/10 02:32:03;;;;;;;;;;;;;;;;;;4949248;29;19930;-79
2023/07/10 02:34:35;;;;;;;;;;;;;;;;;;4960233;28;19933;-78
2023/07/10 02:37:03;;;;;;;;;;;;;;;;;;4948912;29;19937;-79
2023/07/10 02:39:30;;;;;;;;;;;;;;;;;;4962806;28;19938;-79
2023/07/10 02:41:58;;;;;;;;;;;;;;;;;;4948302;29;19937;-79
2023/07/10 02:44:26;;;;;;;;;;;;;;;;;;4948142;29;19952;-79
2023/07/10 02:46:53;;;;;;;;;;;;;;;;;;4942197;29;19931;-80
2023/07/10 02:49:21;;;;;;;;;;;;;;;;;;4947687;29;20461;-80
2023/07/10 02:51:54;;;;;;;;;;;;;;;;;;4947890;29;19934;-80
2023/07/10 02:54:22;;;;;;;;;;;;;;;;;;4938276;28;19930;-79
2023/07/10 02:56:49;;;;;;;;;;;;;;;;;;4947012;29;20287;-80
2023/07/10 02:59:22;;;;;;;;;;;;;;;;;;4946510;29;19937;-80
2023/07/10 03:01:49;;;;;;;;;;;;;;;;;;4940298;29;19938;-80
2023/07/10 03:04:22;;;;;;;;;;;;;;;;;;4947813;29;19930;-80
2023/07/10 03:06:54;;;;;;;;;;;;;;;;;;4960832;28;20330;-78
2023/07/10 03:09:27;;;;;;;;;;;;;;;;;;4938381;28;19961;-79
2023/07/10 03:11:55;;;;;;;;;;;;;;;;;;4952213;28;19930;-80
2023/07/10 03:14:27;;;;;;;;;;;;;;;;;;4940506;29;20298;-80
2023/07/10 03:16:55;;;;;;;;;;;;;;;;;;4945303;29;19934;-80
2023/07/10 03:19:22;;;;;;;;;;;;;;;;;;4962857;28;19930;-80
2023/07/10 03:21:51;;;;;;;;;;;;;;;;;;4939374;29;20568;-80
2023/07/10 03:24:23;;;;;;;;;;;;;;;;;;4944788;29;19930;-79
2023/07/10 03:26:51;;;;;;;;;;;;;;;;;;4947490;29;19930;-79
2023/07/10 03:29:18;;;;;;;;;;;;;;;;;;4955139;28;19931;-79
2023/07/10 03:31:46;;;;;;;;;;;;;;;;;;4947012;29;19930;-79
2023/07/10 03:34:13;;;;;;;;;;;;;;;;;;4954581;28;19938;-80
2023/07/10 03:36:46;;;;;;;;;;;;;;;;;;4947228;29;19938;-79
2023/07/10 03:39:13;;;;;;;;;;;;;;;;;;4941963;29;19930;-79
2023/07/10 03:41:46;;;;;;;;;;;;;;;;;;4947409;29;20007;-80
2023/07/10 03:44:13;;;;;;;;;;;;;;;;;;4954892;28;19930;-79
2023/07/10 03:46:46;;;;;;;;;;;;;;;;;;4945735;29;19930;-79
2023/07/10 03:49:18;;;;;;;;;;;;;;;;;;4938925;29;19934;-80
2023/07/10 03:51:46;;;;;;;;;;;;;;;;;;4946036;29;20219;-79
2023/07/10 03:54:14;;;;;;;;;;;;;;;;;;4963188;28;19930;-79
2023/07/10 03:56:42;;;;;;;;;;;;;;;;;;4937840;28;19942;-79
2023/07/10 03:59:14;;;;;;;;;;;;;;;;;;4947291;29;19931;-80
2023/07/10 04:01:43;;;;;;;;;;;;;;;;;;4947858;29;19945;-80
2023/07/10 04:04:11;;;;;;;;;;;;;;;;;;4946252;29;19935;-80
2023/07/10 04:06:43;;;;;;;;;;;;;;;;;;4944771;29;19938;-79
2023/07/10 04:09:12;;;;;;;;;;;;;;;;;;4948020;29;19931;-81
2023/07/10 04:11:43;;;;;;;;;;;;;;;;;;4949462;29;19934;-76
2023/07/10 04:14:21;;;;;;;;;;;;;;;;;;4948054;28;20330;-76
2023/07/10 04:16:48;;;;;;;;;;;;;;;;;;4959267;28;19935;-77
2023/07/10 04:19:16;;;;;;;;;;;;;;;;;;4940499;29;19931;-76
2023/07/10 04:21:43;;;;;;;;;;;;;;;;;;4937857;29;20323;-78
2023/07/10 04:24:17;;;;;;;;;;;;;;;;;;4945021;29;19933;-79
2023/07/10 04:26:45;;;;;;;;;;;;;;;;;;4944342;29;20291;-77
2023/07/10 04:29:13;;;;;;;;;;;;;;;;;;4961291;28;19937;-77
2023/07/10 04:31:40;;;;;;;;;;;;;;;;;;4956319;28;20347;-76
2023/07/10 04:34:08;;;;;;;;;;;;;;;;;;4959993;28;20686;-76
2023/07/10 04:36:42;;;;;;;;;;;;;;;;;;4946692;29;19926;-76
2023/07/10 04:39:10;;;;;;;;;;;;;;;;;;4962123;28;19931;-77
2023/07/10 04:41:37;;;;;;;;;;;;;;;;;;4947828;29;19938;-77
2023/07/10 04:44:10;;;;;;;;;;;;;;;;;;4943392;29;19931;-77
2023/07/10 04:46:37;;;;;;;;;;;;;;;;;;4943246;28;19931;-77
2023/07/10 04:49:05;;;;;;;;;;;;;;;;;;4961999;28;19930;-76
2023/07/10 04:51:38;;;;;;;;;;;;;;;;;;4947782;29;19930;-77
2023/07/10 04:54:05;;;;;;;;;;;;;;;;;;4947994;29;19953;-76
2023/07/10 04:56:33;;;;;;;;;;;;;;;;;;4944307;29;20308;-78
2023/07/10 04:59:00;;;;;;;;;;;;;;;;;;4940123;29;19953;-77
2023/07/10 05:01:28;;;;;;;;;;;;;;;;;;4936766;28;19938;-77
2023/07/10 05:04:00;;;;;;;;;;;;;;;;;;4939364;29;19930;-75
2023/07/10 05:06:28;;;;;;;;;;;;;;;;;;4940639;29;20306;-80
2023/07/10 05:08:56;;;;;;;;;;;;;;;;;;4941061;29;19938;-79
2023/07/10 05:11:23;;;;;;;;;;;;;;;;;;4957975;28;20307;-79
2023/07/10 05:13:51;;;;;;;;;;;;;;;;;;4945077;29;19946;-79
2023/07/10 05:16:23;;;;;;;;;;;;;;;;;;4943561;29;19930;-76
2023/07/10 05:18:56;;;;;;;;;;;;;;;;;;4943981;29;19981;-78
2023/07/10 05:21:43;;;;;;;;;;;;;;;;;;4945558;29;19946;-77
2023/07/10 05:24:11;;;;;;;;;;;;;;;;;;4944765;29;20386;-80
2023/07/10 05:26:43;;;;;;;;;;;;;;;;;;4957834;28;19930;-80
2023/07/10 05:29:11;;;;;;;;;;;;;;;;;;4941777;29;19926;-79
2023/07/10 05:31:43;;;;;;;;;;;;;;;;;;4943333;29;19950;-79
2023/07/10 05:34:11;;;;;;;;;;;;;;;;;;4942589;28;19931;-79
2023/07/10 05:36:38;;;;;;;;;;;;;;;;;;4946078;29;20402;-78
2023/07/10 05:39:12;;;;;;;;;;;;;;;;;;4942465;29;19942;-78
2023/07/10 05:41:40;;;;;;;;;;;;;;;;;;4959543;28;19941;-80
2023/07/10 05:44:07;;;;;;;;;;;;;;;;;;4943487;29;19942;-78
2023/07/10 05:46:35;;;;;;;;;;;;;;;;;;4943856;29;19946;-79
2023/07/10 05:49:03;;;;;;;;;;;;;;;;;;4943765;29;19937;-79
2023/07/10 05:51:35;;;;;;;;;;;;;;;;;;4943984;29;19931;-80
2023/07/10 05:54:08;;;;;;;;;;;;;;;;;;4944862;29;20009;-79
2023/07/10 05:56:35;;;;;;;;;;;;;;;;;;4940663;29;19938;-78
2023/07/10 05:59:03;;;;;;;;;;;;;;;;;;4944226;29;19931;-79
2023/07/10 06:01:30;;;;;;;;;;;;;;;;;;4940216;29;19931;-79
2023/07/10 06:04:03;;;;;;;;;;;;;;;;;;4939492;29;20507;-79
2023/07/10 06:06:30;;;;;;;;;;;;;;;;;;4946997;28;19942;-78
2023/07/10 06:08:58;;;;;;;;;;;;;;;;;;4938450;29;19942;-78
2023/07/10 06:11:31;;;;;;;;;;;;;;;;;;4941103;28;19946;-78
2023/07/10 06:13:58;;;;;;;;;;;;;;;;;;4941126;29;19930;-79
2023/07/10 06:16:26;;;;;;;;;;;;;;;;;;4938803;29;19938;-78
2023/07/10 06:18:53;;;;;;;;;;;;;;;;;;4933125;29;19938;-78
2023/07/10 06:21:21;;;;;;;;;;;;;;;;;;4924607;28;20030;-78
2023/07/10 06:23:48;;;;;;;;;;;;;;;;;;4939794;28;20655;-80
2023/07/10 06:26:16;;;;;;;;;;;;;;;;;;4907721;28;20336;-78
2023/07/10 06:28:43;;;;;;;;;;;;;;;;;;4918246;28;19950;-78
2023/07/10 06:31:11;;;;;;;;;;;;;;;;;;4909202;29;20654;-78
2023/07/10 06:33:44;;;;;;;;;;;;;;;;;;4915278;29;19935;-78
2023/07/10 06:36:11;;;;;;;;;;;;;;;;;;4910519;28;19941;-78
2023/07/10 06:38:44;;;;;;;;;;;;;;;;;;4915742;29;20575;-78
2023/07/10 06:41:17;;;;;;;;;;;;;;;;;;4907849;29;20664;-78
2023/07/10 06:43:44;;;;;;;;;;;;;;;;;;4923036;28;19935;-78
2023/07/10 06:46:12;;;;;;;;;;;;;;;;;;4922590;28;20050;-78
2023/07/10 06:48:45;;;;;;;;;;;;;;;;;;4905732;29;20764;-79
2023/07/10 06:51:13;;;;;;;;;;;;;;;;;;4934018;28;19935;-78
2023/07/10 06:53:45;;;;;;;;;;;;;;;;;;4915960;29;19942;-78
2023/07/10 06:56:13;;;;;;;;;;;;;;;;;;4912659;28;19935;-78
2023/07/10 06:58:46;;;;;;;;;;;;;;;;;;4904533;28;19946;-78
2023/07/10 07:01:14;;;;;;;;;;;;;;;;;;4910792;28;20453;-78
2023/07/10 07:03:41;;;;;;;;;;;;;;;;;;4903601;29;19941;-79
2023/07/10 07:06:09;;;;;;;;;;;;;;;;;;4906567;29;20554;-79
2023/07/10 07:08:37;;;;;;;;;;;;;;;;;;4907636;29;19935;-79
2023/07/10 07:11:04;;;;;;;;;;;;;;;;;;4912887;29;19941;-79
2023/07/10 07:13:32;;;;;;;;;;;;;;;;;;4909383;29;19997;-79
2023/07/10 07:16:00;;;;;;;;;;;;;;;;;;4919697;29;19934;-79
2023/07/10 07:18:27;;;;;;;;;;;;;;;;;;4905329;29;19945;-79
2023/07/10 07:20:55;;;;;;;;;;;;;;;;;;4913029;29;20462;-79
2023/07/10 07:23:22;;;;;;;;;;;;;;;;;;4932612;28;19937;-79
2023/07/10 07:25:50;;;;;;;;;;;;;;;;;;4915989;28;19935;-79
2023/07/10 07:28:17;;;;;;;;;;;;;;;;;;4927418;28;19937;-79
2023/07/10 07:30:50;;;;;;;;;;;;;;;;;;4903607;29;19942;-79
2023/07/10 07:33:18;;;;;;;;;;;;;;;;;;4914681;29;19930;-79
2023/07/10 07:35:50;;;;;;;;;;;;;;;;;;4910718;29;19942;-79
2023/07/10 07:38:20;;;;;;;;;;;;;;;;;;4905534;28;20059;-79
2023/07/10 07:40:52;;;;;;;;;;;;;;;;;;4904927;29;19935;-79
2023/07/10 07:43:25;;;;;;;;;;;;;;;;;;4903605;29;19942;-81
2023/07/10 07:45:57;;;;;;;;;;;;;;;;;;4905872;29;20771;-80
2023/07/10 07:48:25;;;;;;;;;;;;;;;;;;4917544;29;19934;-80
2023/07/10 07:50:58;;;;;;;;;;;;;;;;;;4902166;29;19934;-79
2023/07/10 07:53:26;;;;;;;;;;;;;;;;;;4910809;29;19941;-79
2023/07/10 07:55:53;;;;;;;;;;;;;;;;;;4905773;29;19942;-79
2023/07/10 07:58:26;;;;;;;;;;;;;;;;;;4917836;29;20426;-78
2023/07/10 08:00:59;;;;;;;;;;;;;;;;;;4908244;28;20856;-79
2023/07/10 08:03:27;;;;;;;;;;;;;;;;;;4912646;28;19934;-79
2023/07/10 08:05:54;;;;;;;;;;;;;;;;;;4914419;29;19942;-79
2023/07/10 08:08:22;;;;;;;;;;;;;;;;;;4910932;28;19938;-79
2023/07/10 08:10:50;;;;;;;;;;;;;;;;;;4910807;29;19942;-79
2023/07/10 08:13:23;;;;;;;;;;;;;;;;;;4904288;28;20393;-80
2023/07/10 08:15:50;;;;;;;;;;;;;;;;;;4909419;28;19938;-80
2023/07/10 08:18:18;;;;;;;;;;;;;;;;;;4915216;29;21109;-80
2023/07/10 08:20:50;;;;;;;;;;;;;;;;;;4910287;29;19934;-80
2023/07/10 08:23:23;;;;;;;;;;;;;;;;;;4902143;29;19934;-79
2023/07/10 08:25:51;;;;;;;;;;;;;;;;;;4909538;29;20525;-79
2023/07/10 08:28:23;;;;;;;;;;;;;;;;;;4912376;29;21685;-80
2023/07/10 08:30:51;;;;;;;;;;;;;;;;;;4911753;29;19942;-79
2023/07/10 08:33:18;;;;;;;;;;;;;;;;;;4917034;29;19935;-81
2023/07/10 08:35:46;;;;;;;;;;;;;;;;;;4911238;28;19930;-79
2023/07/10 08:38:19;;;;;;;;;;;;;;;;;;4912775;29;19942;-78
2023/07/10 08:40:51;;;;;;;;;;;;;;;;;;4898037;28;19934;-79
2023/07/10 08:43:24;;;;;;;;;;;;;;;;;;4908989;29;20844;-79
2023/07/10 08:45:57;;;;;;;;;;;;;;;;;;4908430;29;19934;-79
2023/07/10 08:48:24;;;;;;;;;;;;;;;;;;4907880;29;19941;-79
2023/07/10 08:50:52;;;;;;;;;;;;;;;;;;4908253;29;19935;-78
2023/07/10 08:53:19;;;;;;;;;;;;;;;;;;4906590;29;19935;-78
2023/07/10 08:55:47;;;;;;;;;;;;;;;;;;4913136;29;20391;-78
2023/07/10 08:58:20;;;;;;;;;;;;;;;;;;4908451;29;19965;-79
2023/07/10 09:00:52;;;;;;;;;;;;;;;;;;4921064;28;19941;-79
2023/07/10 09:03:20;;;;;;;;;;;;;;;;;;4921339;28;19935;-79
2023/07/10 09:05:47;;;;;;;;;;;;;;;;;;4906992;29;19934;-80
2023/07/10 09:08:22;;;;;;;;;;;;;;;;;;4906590;29;19939;-80
2023/07/10 09:10:55;;;;;;;;;;;;;;;;;;4914741;29;19934;-78
2023/07/10 09:13:27;;;;;;;;;;;;;;;;;;4910276;29;19938;-78
2023/07/10 09:15:55;;;;;;;;;;;;;;;;;;4914231;29;19977;-79
2023/07/10 09:18:28;;;;;;;;;;;;;;;;;;4914398;29;19946;-79
2023/07/10 09:21:01;;;;;;;;;;;;;;;;;;4914326;28;19934;-78
2023/07/10 09:23:28;;;;;;;;;;;;;;;;;;4921020;29;19935;-78
2023/07/10 09:25:56;;;;;;;;;;;;;;;;;;4912992;29;20220;-78
2023/07/10 09:28:23;;;;;;;;;;;;;;;;;;4909349;29;20101;-78
2023/07/10 09:30:51;;;;;;;;;;;;;;;;;;4914096;29;20372;-78
2023/07/10 09:33:24;;;;;;;;;;;;;;;;;;4909601;29;19942;-78
2023/07/10 09:35:56;;;;;;;;;;;;;;;;;;4912243;29;21262;-79
2023/07/10 09:38:24;;;;;;;;;;;;;;;;;;4913227;29;19938;-78
2023/07/10 09:40:52;;;;;;;;;;;;;;;;;;4909836;29;19930;-78
2023/07/10 09:43:19;;;;;;;;;;;;;;;;;;4915789;29;19941;-78
2023/07/10 09:45:47;;;;;;;;;;;;;;;;;;4918026;28;20300;-78
2023/07/10 09:48:14;;;;;;;;;;;;;;;;;;4917345;29;19942;-78
2023/07/10 09:50:49;;;;;;;;;;;;;;;;;;4911318;29;20052;-79
2023/07/10 09:53:16;;;;;;;;;;;;;;;;;;4908826;29;21251;-78
2023/07/10 09:55:44;;;;;;;;;;;;;;;;;;4916124;29;19935;-78
2023/07/10 09:58:17;;;;;;;;;;;;;;;;;;4910403;28;20641;-78
2023/07/10 10:00:49;;;;;;;;;;;;;;;;;;4912357;29;19942;-78
2023/07/10 10:03:22;;;;;;;;;;;;;;;;;;4909536;29;19934;-78
2023/07/10 10:05:55;;;;;;;;;;;;;;;;;;4924064;28;19935;-79
2023/07/10 10:08:22;;;;;;;;;;;;;;;;;;4920382;29;19930;-78
2023/07/10 10:10:50;;;;;;;;;;;;;;;;;;4910239;29;20500;-78
2023/07/10 10:13:23;;;;;;;;;;;;;;;;;;4910467;29;19934;-78
2023/07/10 10:15:50;;;;;;;;;;;;;;;;;;4922189;28;19969;-78
2023/07/10 10:18:23;;;;;;;;;;;;;;;;;;4910324;29;19930;-78
2023/07/10 10:20:56;;;;;;;;;;;;;;;;;;4910476;29;19934;-78
2023/07/10 10:23:23;;;;;;;;;;;;;;;;;;4907493;29;19935;-78
2023/07/10 10:25:51;;;;;;;;;;;;;;;;;;4906046;29;20128;-78
2023/07/10 10:28:23;;;;;;;;;;;;;;;;;;4906378;29;19935;-78
2023/07/10 10:30:51;;;;;;;;;;;;;;;;;;4915416;28;20367;-78
2023/07/10 10:33:24;;;;;;;;;;;;;;;;;;4905414;29;19937;-80
2023/07/10 10:35:52;;;;;;;;;;;;;;;;;;4924228;28;19934;-77
2023/07/10 10:38:19;;;;;;;;;;;;;;;;;;4905824;29;19942;-78
2023/07/10 10:40:52;;;;;;;;;;;;;;;;;;4912735;29;19961;-78
2023/07/10 10:43:19;;;;;;;;;;;;;;;;;;4907031;29;20478;-79
2023/07/10 10:45:47;;;;;;;;;;;;;;;;;;4899893;28;19935;-78
2023/07/10 10:48:19;;;;;;;;;;;;;;;;;;4920251;28;19938;-78
2023/07/10 10:50:52;;;;;;;;;;;;;;;;;;4904248;29;19935;-79
2023/07/10 10:53:20;;;;;;;;;;;;;;;;;;4917122;28;19942;-78
2023/07/10 10:55:52;;;;;;;;;;;;;;;;;;4907927;29;19942;-78
2023/07/10 10:58:25;;;;;;;;;;;;;;;;;;4908298;29;19934;-79
2023/07/10 11:00:57;;;;;;;;;;;;;;;;;;4897570;29;19930;-78
2023/07/10 11:03:30;;;;;;;;;;;;;;;;;;4909777;29;19936;-78
2023/07/10 11:05:57;;;;;;;;;;;;;;;;;;4907165;29;19935;-79
2023/07/10 11:08:25;;;;;;;;;;;;;;;;;;4905940;29;19934;-78
2023/07/10 11:10:52;;;;;;;;;;;;;;;;;;4909304;29;19935;-79
2023/07/10 11:13:20;;;;;;;;;;;;;;;;;;4909136;29;19935;-80
2023/07/10 11:15:52;;;;;;;;;;;;;;;;;;4911768;29;19930;-79
2023/07/10 11:18:25;;;;;;;;;;;;;;;;;;4908597;29;19938;-79
2023/07/10 11:20:53;;;;;;;;;;;;;;;;;;4909135;29;19935;-78
2023/07/10 11:23:27;;;;;;;;;;;;;;;;;;4906899;29;19950;-79
2023/07/10 11:25:59;;;;;;;;;;;;;;;;;;4919333;28;19934;-79
2023/07/10 11:28:27;;;;;;;;;;;;;;;;;;4906931;29;19931;-80
2023/07/10 11:30:54;;;;;;;;;;;;;;;;;;4905575;29;19934;-79
2023/07/10 11:33:22;;;;;;;;;;;;;;;;;;4899794;29;21311;-79
2023/07/10 11:35:49;;;;;;;;;;;;;;;;;;4917163;29;19941;-80
2023/07/10 11:38:17;;;;;;;;;;;;;;;;;;4915707;29;19957;-80
2023/07/10 11:40:44;;;;;;;;;;;;;;;;;;4915076;29;20808;-81
2023/07/10 11:43:12;;;;;;;;;;;;;;;;;;4903906;29;19935;-81
2023/07/10 11:45:40;;;;;;;;;;;;;;;;;;4907573;29;19957;-80
2023/07/10 11:48:08;;;;;;;;;;;;;;;;;;4907792;29;19935;-81
2023/07/10 11:50:42;;;;;;;;;;;;;;;;;;4909364;29;19941;-80
2023/07/10 11:53:10;;;;;;;;;;;;;;;;;;4903813;28;21536;-80
2023/07/10 11:55:37;;;;;;;;;;;;;;;;;;4906277;29;20473;-80
2023/07/10 11:58:10;;;;;;;;;;;;;;;;;;4901950;29;19941;-79
2023/07/10 12:00:37;;;;;;;;;;;;;;;;;;4908211;29;20600;-80
2023/07/10 12:03:10;;;;;;;;;;;;;;;;;;4909665;29;19935;-79
2023/07/10 12:05:37;;;;;;;;;;;;;;;;;;4895420;28;19944;-79
2023/07/10 12:08:05;;;;;;;;;;;;;;;;;;4904647;29;19946;-79
2023/07/10 12:10:33;;;;;;;;;;;;;;;;;;4916391;29;20382;-79
2023/07/10 12:13:00;;;;;;;;;;;;;;;;;;4910133;29;20610;-79
2023/07/10 12:15:28;;;;;;;;;;;;;;;;;;4915269;29;20375;-80
2023/07/10 12:18:00;;;;;;;;;;;;;;;;;;4906044;29;19935;-80
2023/07/10 12:20:28;;;;;;;;;;;;;;;;;;4907274;29;19930;-79
2023/07/10 12:22:55;;;;;;;;;;;;;;;;;;4901444;29;19935;-80
2023/07/10 12:25:23;;;;;;;;;;;;;;;;;;4907486;29;19946;-79
2023/07/10 12:27:51;;;;;;;;;;;;;;;;;;4908948;29;19942;-79
2023/07/10 12:30:18;;;;;;;;;;;;;;;;;;4903160;29;20346;-79
2023/07/10 12:32:51;;;;;;;;;;;;;;;;;;4910545;29;19935;-80
2023/07/10 12:35:19;;;;;;;;;;;;;;;;;;4908202;29;19962;-79
2023/07/10 12:37:46;;;;;;;;;;;;;;;;;;4918063;29;19942;-80
2023/07/10 12:40:14;;;;;;;;;;;;;;;;;;4917863;28;20599;-78
2023/07/10 12:42:42;;;;;;;;;;;;;;;;;;4917850;28;19935;-79
2023/07/10 12:45:15;;;;;;;;;;;;;;;;;;4904570;29;20556;-80
2023/07/10 12:47:47;;;;;;;;;;;;;;;;;;4910478;29;19942;-79
2023/07/10 12:50:15;;;;;;;;;;;;;;;;;;4936458;29;20286;-79
2023/07/10 12:52:42;;;;;;;;;;;;;;;;;;4944357;29;19931;-79
2023/07/10 12:55:10;;;;;;;;;;;;;;;;;;4945401;29;20730;-80
2023/07/10 12:57:37;;;;;;;;;;;;;;;;;;4945120;29;19942;-79
2023/07/10 13:00:05;;;;;;;;;;;;;;;;;;4937935;29;19930;-79
2023/07/10 13:02:33;;;;;;;;;;;;;;;;;;4937036;29;19957;-81
2023/07/10 13:05:00;;;;;;;;;;;;;;;;;;4935456;29;19938;-79
2023/07/10 13:07:28;;;;;;;;;;;;;;;;;;4943503;28;19930;-80
2023/07/10 13:10:00;;;;;;;;;;;;;;;;;;4936887;29;19931;-79
2023/07/10 13:12:28;;;;;;;;;;;;;;;;;;4941148;29;19959;-78
2023/07/10 13:14:56;;;;;;;;;;;;;;;;;;4936894;29;19931;-79
2023/07/10 13:17:25;;;;;;;;;;;;;;;;;;4934141;29;19930;-80
2023/07/10 13:19:52;;;;;;;;;;;;;;;;;;4933899;29;19937;-80
2023/07/10 13:22:25;;;;;;;;;;;;;;;;;;4951046;28;20479;-80
2023/07/10 13:24:57;;;;;;;;;;;;;;;;;;4933695;29;20307;-80
2023/07/10 13:27:30;;;;;;;;;;;;;;;;;;4940525;29;19931;-79
2023/07/10 13:29:58;;;;;;;;;;;;;;;;;;4940079;29;19937;-80
2023/07/10 13:32:30;;;;;;;;;;;;;;;;;;4947683;28;19942;-80
2023/07/10 13:35:03;;;;;;;;;;;;;;;;;;4949345;28;19941;-80
2023/07/10 13:37:35;;;;;;;;;;;;;;;;;;4939457;28;21761;-81
2023/07/10 13:40:03;;;;;;;;;;;;;;;;;;4942089;29;19933;-80
2023/07/10 13:42:35;;;;;;;;;;;;;;;;;;4953688;28;20425;-79
2023/07/10 13:45:08;;;;;;;;;;;;;;;;;;4944075;29;19933;-80
2023/07/10 13:47:40;;;;;;;;;;;;;;;;;;4938355;29;20315;-79
2023/07/10 13:50:13;;;;;;;;;;;;;;;;;;4933621;28;19931;-79
2023/07/10 13:52:40;;;;;;;;;;;;;;;;;;4936692;28;19957;-79
2023/07/10 13:55:08;;;;;;;;;;;;;;;;;;4942923;28;19959;-79
2023/07/10 13:57:40;;;;;;;;;;;;;;;;;;4943604;29;19930;-80
2023/07/10 14:00:13;;;;;;;;;;;;;;;;;;4938449;29;19934;-81
2023/07/10 14:02:43;;;;;;;;;;;;;;;;;;4945849;29;19949;-79
2023/07/10 14:05:12;;;;;;;;;;;;;;;;;;4942788;29;19973;-81
2023/07/10 14:07:45;;;;;;;;;;;;;;;;;;4940714;28;19935;-80
2023/07/10 14:10:17;;;;;;;;;;;;;;;;;;4957660;28;19930;-81
2023/07/10 14:12:45;;;;;;;;;;;;;;;;;;4944362;29;20011;-79
2023/07/10 14:15:17;;;;;;;;;;;;;;;;;;4938488;28;19930;-78
2023/07/10 14:17:45;;;;;;;;;;;;;;;;;;4937039;28;20451;-79
2023/07/10 14:20:18;;;;;;;;;;;;;;;;;;4937159;28;19930;-79
2023/07/10 14:22:50;;;;;;;;;;;;;;;;;;4938991;29;20657;-78
2023/07/10 14:25:23;;;;;;;;;;;;;;;;;;4938069;29;19941;-79
2023/07/10 14:27:50;;;;;;;;;;;;;;;;;;4940581;29;19938;-79
2023/07/10 14:30:18;;;;;;;;;;;;;;;;;;4944444;29;20458;-79
2023/07/10 14:32:51;;;;;;;;;;;;;;;;;;4940287;29;19931;-80
2023/07/10 14:35:18;;;;;;;;;;;;;;;;;;4958557;28;19971;-79
2023/07/10 14:37:51;;;;;;;;;;;;;;;;;;4937294;29;19941;-78
2023/07/10 14:40:21;;;;;;;;;;;;;;;;;;4936458;29;19937;-80
2023/07/10 14:42:48;;;;;;;;;;;;;;;;;;4939512;28;19934;-79
2023/07/10 14:45:15;;;;;;;;;;;;;;;;;;4938988;29;19930;-79
2023/07/10 14:47:43;;;;;;;;;;;;;;;;;;4936598;28;19942;-79
2023/07/10 14:50:11;;;;;;;;;;;;;;;;;;4952646;28;19934;-81
2023/07/10 14:52:44;;;;;;;;;;;;;;;;;;4952358;28;19930;-80
2023/07/10 14:55:16;;;;;;;;;;;;;;;;;;4944760;29;20354;-80
2023/07/10 14:57:49;;;;;;;;;;;;;;;;;;4938752;28;19931;-79
2023/07/10 15:00:22;;;;;;;;;;;;;;;;;;4939361;29;19930;-79
2023/07/10 15:02:49;;;;;;;;;;;;;;;;;;4944471;29;19934;-79
2023/07/10 15:05:23;;;;;;;;;;;;;;;;;;4953395;28;19930;-80
2023/07/10 15:07:55;;;;;;;;;;;;;;;;;;4940005;28;19946;-80
2023/07/10 15:10:23;;;;;;;;;;;;;;;;;;4953115;28;20289;-81
2023/07/10 15:12:55;;;;;;;;;;;;;;;;;;4941777;29;19931;-79
2023/07/10 15:15:28;;;;;;;;;;;;;;;;;;4936645;28;19942;-80
2023/07/10 15:18:01;;;;;;;;;;;;;;;;;;4942053;29;19937;-80
2023/07/10 15:20:33;;;;;;;;;;;;;;;;;;4954788;28;19930;-82
2023/07/10 15:23:05;;;;;;;;;;;;;;;;;;4939139;29;19938;-79
2023/07/10 15:25:33;;;;;;;;;;;;;;;;;;4940171;29;19941;-80
2023/07/10 15:28:06;;;;;;;;;;;;;;;;;;4940511;29;19935;-82
2023/07/10 15:30:39;;;;;;;;;;;;;;;;;;4941507;29;21517;-81
2023/07/10 15:33:06;;;;;;;;;;;;;;;;;;4940639;29;19930;-81
2023/07/10 15:35:34;;;;;;;;;;;;;;;;;;4951677;28;20614;-80
2023/07/10 15:38:03;;;;;;;;;;;;;;;;;;4939496;29;19935;-81
2023/07/10 15:40:35;;;;;;;;;;;;;;;;;;4940225;29;20280;-81
2023/07/10 15:43:03;;;;;;;;;;;;;;;;;;4955264;28;20375;-81
2023/07/10 15:45:36;;;;;;;;;;;;;;;;;;4938444;29;19934;-81
2023/07/10 15:48:04;;;;;;;;;;;;;;;;;;4953801;28;19930;-80
2023/07/10 15:50:37;;;;;;;;;;;;;;;;;;4936732;29;19935;-79
2023/07/10 15:53:10;;;;;;;;;;;;;;;;;;4938453;29;20302;-82
2023/07/10 15:55:42;;;;;;;;;;;;;;;;;;4952834;28;19930;-80
2023/07/10 15:58:10;;;;;;;;;;;;;;;;;;4940854;29;19931;-81
2023/07/10 16:00:42;;;;;;;;;;;;;;;;;;4942296;29;20292;-81
2023/07/10 16:03:10;;;;;;;;;;;;;;;;;;4940577;29;19930;-82
2023/07/10 16:05:43;;;;;;;;;;;;;;;;;;4954967;28;19931;-87
2023/07/10 16:08:15;;;;;;;;;;;;;;;;;;4940895;29;19941;-80
2023/07/10 16:10:48;;;;;;;;;;;;;;;;;;4941368;28;19941;-81
2023/07/10 16:13:15;;;;;;;;;;;;;;;;;;4942443;29;20300;-79
2023/07/10 16:15:43;;;;;;;;;;;;;;;;;;4944744;29;19953;-81
2023/07/10 16:18:10;;;;;;;;;;;;;;;;;;4943478;28;19931;-81
2023/07/10 16:20:38;;;;;;;;;;;;;;;;;;4938925;29;19934;-80
2023/07/10 16:23:05;;;;;;;;;;;;;;;;;;4941805;29;19930;-79
2023/07/10 16:25:38;;;;;;;;;;;;;;;;;;4941511;29;19934;-80
2023/07/10 16:28:06;;;;;;;;;;;;;;;;;;4955217;28;19930;-80
2023/07/10 16:30:39;;;;;;;;;;;;;;;;;;4940659;29;20524;-80
2023/07/10 16:33:07;;;;;;;;;;;;;;;;;;4944913;29;19941;-80
2023/07/10 16:35:34;;;;;;;;;;;;;;;;;;4917647;29;20403;-80
2023/07/10 16:38:02;;;;;;;;;;;;;;;;;;4909876;29;19935;-80
2023/07/10 16:40:29;;;;;;;;;;;;;;;;;;4907440;29;20598;-80
2023/07/10 16:42:57;;;;;;;;;;;;;;;;;;4909725;29;19935;-81
2023/07/10 16:45:24;;;;;;;;;;;;;;;;;;4917183;29;19938;-80
2023/07/10 16:47:52;;;;;;;;;;;;;;;;;;4906832;28;19935;-80
2023/07/10 16:50:19;;;;;;;;;;;;;;;;;;4902211;29;19935;-79
2023/07/10 16:52:47;;;;;;;;;;;;;;;;;;4902207;28;19942;-80
2023/07/10 16:55:15;;;;;;;;;;;;;;;;;;4905197;29;20330;-80
2023/07/10 16:57:42;;;;;;;;;;;;;;;;;;4902464;28;19945;-79
2023/07/10 17:00:15;;;;;;;;;;;;;;;;;;4901533;29;21564;-79
2023/07/10 17:02:43;;;;;;;;;;;;;;;;;;4904399;29;19941;-80